createdAt,value
2018-02-27T00:00:33.683Z,101588.19
2018-02-27T00:03:00.274Z,101588.44
2018-02-27T00:05:26.826Z,101597.74
2018-02-27T00:07:53.408Z,101589.75
2018-02-27T00:10:19.969Z,101590.47
2018-02-27T00:12:46.583Z,101590.70
2018-02-27T00:15:13.186Z,101593.02
2018-02-27T00:17:40.574Z,101588.80
2018-02-27T00:20:07.857Z,101590.69
2018-02-27T00:22:34.536Z,101595.47
2018-02-27T00:25:01.094Z,101596.68
2018-02-27T00:27:27.695Z,101597.91
2018-02-27T00:29:55.026Z,101596.13
2018-02-27T00:32:21.594Z,101595.39
2018-02-27T00:34:48.904Z,101607.58
2018-02-27T00:37:15.525Z,101607.02
2018-02-27T00:39:42.075Z,101605.73
2018-02-27T00:42:09.374Z,101608.41
2018-02-27T00:44:35.939Z,101620.29
2018-02-27T00:47:02.534Z,101619.24
2018-02-27T00:49:29.844Z,101618.69
2018-02-27T00:52:00.161Z,101613.75
2018-02-27T00:54:26.691Z,101611.16
2018-02-27T00:56:54.043Z,101614.63
2018-02-27T00:59:21.343Z,101609.33
2018-02-27T01:04:15.038Z,101608.27
2018-02-27T01:06:41.617Z,101604.19
2018-02-27T01:09:08.152Z,101607.35
2018-02-27T01:11:34.758Z,101605.09
2018-02-27T01:14:01.332Z,101602.33
2018-02-27T01:16:27.931Z,101600.47
2018-02-27T01:18:54.492Z,101597.89
2018-02-27T01:21:27.101Z,101595.77
2018-02-27T01:23:54.373Z,101598.21
2018-02-27T01:26:21.666Z,101592.78
2018-02-27T01:28:48.250Z,101595.35
2018-02-27T01:31:14.917Z,101583.47
2018-02-27T01:33:41.482Z,101586.42
2018-02-27T01:36:08.757Z,101584.09
2018-02-27T01:38:36.063Z,101582.19
2018-02-27T01:41:03.184Z,101582.00
2018-02-27T01:43:30.493Z,101577.56
2018-02-27T01:45:57.068Z,101576.81
2018-02-27T01:48:23.654Z,101574.17
2018-02-27T01:51:09.157Z,101575.69
2018-02-27T01:53:35.731Z,101565.34
2018-02-27T01:56:02.255Z,101568.42
2018-02-27T01:58:28.827Z,101569.02
2018-02-27T02:00:55.356Z,101565.66
2018-02-27T02:03:21.925Z,101560.45
2018-02-27T02:05:48.484Z,101561.63
2018-02-27T02:08:15.048Z,101561.05
2018-02-27T02:10:42.066Z,101559.05
2018-02-27T02:13:08.607Z,101557.77
2018-02-27T02:15:35.136Z,101555.64
2018-02-27T02:18:02.451Z,101547.62
2018-02-27T02:20:29.029Z,101555.34
2018-02-27T02:22:56.341Z,101544.86
2018-02-27T02:25:22.921Z,101542.66
2018-02-27T02:27:49.524Z,101531.05
2018-02-27T02:30:16.098Z,101526.01
2018-02-27T02:32:43.177Z,101527.16
2018-02-27T02:35:09.732Z,101533.25
2018-02-27T02:37:36.268Z,101528.82
2018-02-27T02:40:02.931Z,101524.38
2018-02-27T02:42:29.481Z,101524.92
2018-02-27T02:44:56.030Z,101527.06
2018-02-27T02:47:22.564Z,101531.36
2018-02-27T02:49:49.157Z,101534.48
2018-02-27T02:52:16.447Z,101524.96
2018-02-27T02:54:42.994Z,101522.80
2018-02-27T02:57:09.586Z,101521.23
2018-02-27T02:59:36.153Z,101519.84
2018-02-27T03:02:02.765Z,101516.91
2018-02-27T03:04:29.334Z,101513.42
2018-02-27T03:06:55.899Z,101516.53
2018-02-27T03:09:22.469Z,101514.25
2018-02-27T03:11:49.774Z,101511.20
2018-02-27T03:14:16.470Z,101515.50
2018-02-27T03:16:43.023Z,101510.98
2018-02-27T03:19:10.322Z,101510.19
2018-02-27T03:21:36.868Z,101508.69
2018-02-27T03:24:03.428Z,101506.45
2018-02-27T03:26:29.960Z,101505.42
2018-02-27T03:28:56.516Z,101507.07
2018-02-27T03:31:23.097Z,101514.61
2018-02-27T03:33:49.655Z,101508.11
2018-02-27T03:36:16.216Z,101508.62
2018-02-27T03:38:42.770Z,101509.17
2018-02-27T03:41:09.312Z,101506.45
2018-02-27T03:43:35.880Z,101507.89
2018-02-27T03:46:03.183Z,101509.09
2018-02-27T03:48:29.773Z,101499.78
2018-02-27T03:50:56.329Z,101502.60
2018-02-27T03:53:22.895Z,101498.19
2018-02-27T03:55:50.186Z,101499.44
2018-02-27T03:58:16.746Z,101485.45
2018-02-27T04:00:43.286Z,101489.23
2018-02-27T04:03:09.820Z,101485.72
2018-02-27T04:05:36.416Z,101481.16
2018-02-27T04:08:03.237Z,101484.02
2018-02-27T04:10:29.794Z,101475.61
2018-02-27T04:12:56.331Z,101469.23
2018-02-27T04:15:22.863Z,101469.75
2018-02-27T04:17:49.444Z,101472.31
2018-02-27T04:20:15.983Z,101472.20
2018-02-27T04:22:42.532Z,101472.24
2018-02-27T04:25:09.100Z,101470.92
2018-02-27T04:27:35.622Z,101471.84
2018-02-27T04:30:02.261Z,101474.95
2018-02-27T04:32:28.825Z,101479.40
2018-02-27T04:34:55.362Z,101471.84
2018-02-27T04:37:21.922Z,101469.78
2018-02-27T04:39:48.494Z,101472.28
2018-02-27T04:42:15.121Z,101473.64
2018-02-27T04:44:41.781Z,101478.08
2018-02-27T04:47:08.317Z,101473.27
2018-02-27T04:49:34.875Z,101476.28
2018-02-27T04:52:01.419Z,101474.52
2018-02-27T04:54:27.999Z,101476.38
2018-02-27T04:56:54.558Z,101475.94
2018-02-27T04:59:21.092Z,101478.02
2018-02-27T05:01:47.631Z,101481.28
2018-02-27T05:04:14.213Z,101479.40
2018-02-27T05:06:41.553Z,101475.88
2018-02-27T05:09:08.100Z,101477.55
2018-02-27T05:11:34.639Z,101474.13
2018-02-27T05:14:01.189Z,101475.88
2018-02-27T05:16:27.720Z,101472.30
2018-02-27T05:18:54.319Z,101473.58
2018-02-27T05:21:20.882Z,101470.81
2018-02-27T05:23:47.441Z,101474.59
2018-02-27T05:26:13.977Z,101470.63
2018-02-27T05:28:40.538Z,101477.02
2018-02-27T05:31:07.147Z,101477.50
2018-02-27T05:33:33.708Z,101476.43
2018-02-27T05:36:01.003Z,101467.96
2018-02-27T05:38:27.551Z,101472.27
2018-02-27T05:40:54.086Z,101475.55
2018-02-27T05:43:21.405Z,101479.97
2018-02-27T05:45:47.952Z,101478.04
2018-02-27T05:48:14.511Z,101474.67
2018-02-27T05:50:41.055Z,101480.64
2018-02-27T05:53:07.615Z,101481.45
2018-02-27T05:55:34.185Z,101486.02
2018-02-27T05:58:00.720Z,101480.21
2018-02-27T06:00:27.243Z,101485.10
2018-02-27T06:02:53.796Z,101485.78
2018-02-27T06:05:21.211Z,101497.89
2018-02-27T06:07:47.833Z,101492.84
2018-02-27T06:10:14.360Z,101493.72
2018-02-27T06:12:40.914Z,101486.47
2018-02-27T06:15:07.463Z,101493.23
2018-02-27T06:17:34.020Z,101487.77
2018-02-27T06:20:01.702Z,101485.88
2018-02-27T06:22:28.257Z,101488.86
2018-02-27T06:24:54.837Z,101485.17
2018-02-27T06:27:21.391Z,101486.58
2018-02-27T06:29:47.980Z,101489.88
2018-02-27T06:32:14.522Z,101492.38
2018-02-27T06:34:41.069Z,101485.22
2018-02-27T06:37:07.590Z,101485.53
2018-02-27T06:39:34.135Z,101496.05
2018-02-27T06:42:00.709Z,101497.22
2018-02-27T06:44:27.590Z,101497.48
2018-02-27T06:46:54.200Z,101501.53
2018-02-27T06:49:20.798Z,101506.17
2018-02-27T06:51:48.410Z,101505.71
2018-02-27T06:54:14.976Z,101500.41
2018-02-27T06:56:41.508Z,101501.55
2018-02-27T06:59:08.052Z,101506.15
2018-02-27T07:01:34.637Z,101494.65
2018-02-27T07:04:01.187Z,101497.82
2018-02-27T07:06:27.764Z,101493.52
2018-02-27T07:08:55.050Z,101495.21
2018-02-27T07:11:21.601Z,101489.96
2018-02-27T07:13:48.181Z,101490.08
2018-02-27T07:16:14.727Z,101497.17
2018-02-27T07:18:41.289Z,101498.42
2018-02-27T07:21:08.344Z,101493.23
2018-02-27T07:23:34.924Z,101495.19
2018-02-27T07:26:01.524Z,101495.36
2018-02-27T07:28:28.082Z,101493.34
2018-02-27T07:30:54.651Z,101494.22
2018-02-27T07:33:21.214Z,101492.36
2018-02-27T07:35:47.752Z,101491.98
2018-02-27T07:38:14.354Z,101489.09
2018-02-27T07:40:40.927Z,101485.46
2018-02-27T07:43:07.511Z,101483.92
2018-02-27T07:45:34.083Z,101486.14
2018-02-27T07:48:01.382Z,101485.78
2018-02-27T07:50:27.932Z,101482.91
2018-02-27T07:52:54.544Z,101480.97
2018-02-27T07:55:21.198Z,101487.08
2018-02-27T07:57:48.140Z,101480.91
2018-02-27T08:00:14.786Z,101486.41
2018-02-27T08:02:41.385Z,101482.92
2018-02-27T08:05:08.048Z,101476.56
2018-02-27T08:07:34.742Z,101481.67
2018-02-27T08:10:02.476Z,101475.78
2018-02-27T08:12:41.224Z,101476.42
2018-02-27T08:15:08.639Z,101477.02
2018-02-27T08:17:35.269Z,101473.23
2018-02-27T08:20:01.886Z,101468.17
2018-02-27T08:22:28.454Z,101462.44
2018-02-27T08:24:55.032Z,101462.90
2018-02-27T08:27:23.427Z,101460.30
2018-02-27T08:29:50.533Z,101456.44
2018-02-27T08:32:17.177Z,101465.07
2018-02-27T08:34:43.814Z,101463.06
2018-02-27T08:37:10.395Z,101464.72
2018-02-27T08:39:36.936Z,101451.31
2018-02-27T08:42:03.501Z,101464.02
2018-02-27T08:44:30.068Z,101465.09
2018-02-27T08:46:56.624Z,101466.53
2018-02-27T08:49:23.984Z,101464.16
2018-02-27T08:51:50.535Z,101450.10
2018-02-27T08:54:17.894Z,101458.19
2018-02-27T08:56:45.313Z,101448.92
2018-02-27T08:59:11.877Z,101447.86
2018-02-27T09:01:38.508Z,101460.41
2018-02-27T09:04:05.062Z,101448.84
2018-02-27T09:06:31.669Z,101446.39
2018-02-27T09:08:58.959Z,101443.00
2018-02-27T09:11:25.517Z,101439.66
2018-02-27T09:13:52.118Z,101436.69
2018-02-27T09:16:18.680Z,101432.60
2018-02-27T09:18:45.224Z,101436.14
2018-02-27T09:21:11.968Z,101435.56
2018-02-27T09:23:39.300Z,101423.89
2018-02-27T09:26:05.916Z,101423.97
2018-02-27T09:28:32.488Z,101426.28
2018-02-27T09:30:59.033Z,101425.92
2018-02-27T09:33:25.709Z,101422.23
2018-02-27T09:35:52.277Z,101423.09
2018-02-27T09:38:19.029Z,101414.19
2018-02-27T09:40:45.468Z,101418.02
2018-02-27T09:43:12.036Z,101414.91
2018-02-27T09:45:38.578Z,101414.58
2018-02-27T09:48:05.146Z,101407.23
2018-02-27T09:50:32.455Z,101407.34
2018-02-27T09:52:59.039Z,101412.91
2018-02-27T09:55:25.646Z,101413.59
2018-02-27T09:57:52.250Z,101404.44
2018-02-27T10:00:18.775Z,101408.14
2018-02-27T10:02:45.604Z,101409.48
2018-02-27T10:05:12.239Z,101410.68
2018-02-27T10:07:38.866Z,101408.08
2018-02-27T10:10:05.449Z,101408.06
2018-02-27T10:12:32.008Z,101406.91
2018-02-27T10:14:58.601Z,101401.58
2018-02-27T10:17:25.247Z,101399.28
2018-02-27T10:19:51.853Z,101395.12
2018-02-27T10:22:18.409Z,101394.22
2018-02-27T10:24:44.953Z,101393.92
2018-02-27T10:27:11.540Z,101403.22
2018-02-27T10:29:38.292Z,101396.35
2018-02-27T10:32:05.039Z,101395.28
2018-02-27T10:34:31.663Z,101400.95
2018-02-27T10:36:58.267Z,101392.59
2018-02-27T10:39:25.030Z,101388.16
2018-02-27T10:41:52.352Z,101387.43
2018-02-27T10:44:18.959Z,101391.78
2018-02-27T10:46:45.549Z,101388.08
2018-02-27T10:49:12.164Z,101380.66
2018-02-27T10:51:38.854Z,101372.13
2018-02-27T10:54:05.719Z,101375.20
2018-02-27T10:56:32.733Z,101372.98
2018-02-27T10:58:59.314Z,101366.56
2018-02-27T11:01:25.953Z,101368.84
2018-02-27T11:03:52.533Z,101368.58
2018-02-27T11:06:19.176Z,101370.80
2018-02-27T11:08:45.813Z,101370.97
2018-02-27T11:11:12.448Z,101370.61
2018-02-27T11:13:40.124Z,101365.64
2018-02-27T11:16:06.727Z,101354.97
2018-02-27T11:18:34.150Z,101350.84
2018-02-27T11:21:01.322Z,101355.03
2018-02-27T11:23:27.926Z,101354.98
2018-02-27T11:26:00.083Z,101343.48
2018-02-27T11:28:26.659Z,101344.98
2018-02-27T11:30:53.259Z,101338.66
2018-02-27T11:33:21.029Z,101326.13
2018-02-27T11:35:47.961Z,101330.42
2018-02-27T11:38:14.566Z,101327.18
2018-02-27T11:40:41.266Z,101328.25
2018-02-27T11:43:08.162Z,101322.66
2018-02-27T11:45:34.803Z,101327.69
2018-02-27T11:48:01.447Z,101317.84
2018-02-27T11:50:28.106Z,101319.23
2018-02-27T11:52:55.460Z,101320.30
2018-02-27T11:55:22.032Z,101303.78
2018-02-27T11:57:48.654Z,101307.89
2018-02-27T12:00:15.323Z,101304.50
2018-02-27T12:02:42.723Z,101306.41
2018-02-27T12:05:11.681Z,101304.56
2018-02-27T12:07:38.384Z,101306.72
2018-02-27T12:10:08.220Z,101300.50
2018-02-27T12:12:34.875Z,101303.59
2018-02-27T12:15:01.577Z,101296.36
2018-02-27T12:17:28.153Z,101294.16
2018-02-27T12:19:54.764Z,101292.28
2018-02-27T12:22:21.379Z,101291.52
2018-02-27T12:24:48.000Z,101290.30
2018-02-27T12:27:18.672Z,101287.72
2018-02-27T12:29:45.257Z,101285.55
2018-02-27T12:32:11.857Z,101289.88
2018-02-27T12:34:38.409Z,101284.20
2018-02-27T12:37:04.992Z,101277.59
2018-02-27T12:39:31.638Z,101278.05
2018-02-27T12:41:58.218Z,101278.17
2018-02-27T12:44:24.855Z,101268.62
2018-02-27T12:46:51.499Z,101266.92
2018-02-27T12:49:18.184Z,101266.39
2018-02-27T12:51:45.893Z,101273.31
2018-02-27T12:54:12.561Z,101262.63
2018-02-27T12:56:39.150Z,101251.83
2018-02-27T12:59:05.754Z,101246.65
2018-02-27T13:01:32.375Z,101240.55
2018-02-27T13:03:58.991Z,101247.50
2018-02-27T13:06:25.574Z,101245.77
2018-02-27T13:08:53.017Z,101248.75
2018-02-27T13:11:21.451Z,101234.11
2018-02-27T13:13:49.389Z,101239.30
2018-02-27T13:16:17.261Z,101225.02
2018-02-27T13:18:45.492Z,101232.38
2018-02-27T13:21:13.111Z,101234.10
2018-02-27T13:23:40.662Z,101224.59
2018-02-27T13:26:09.729Z,101221.99
2018-02-27T13:28:39.260Z,101224.59
2018-02-27T13:31:06.792Z,101228.00
2018-02-27T13:33:34.275Z,101224.46
2018-02-27T13:36:02.919Z,101223.13
2018-02-27T13:38:30.533Z,101228.77
2018-02-27T13:40:58.012Z,101221.86
2018-02-27T13:43:26.153Z,101218.43
2018-02-27T13:45:54.057Z,101209.37
2018-02-27T13:48:21.609Z,101207.66
2018-02-27T13:50:49.195Z,101197.28
2018-02-27T13:53:17.439Z,101204.15
2018-02-27T13:55:44.971Z,101202.92
2018-02-27T13:58:12.855Z,101190.80
2018-02-27T14:00:40.291Z,101194.64
2018-02-27T14:03:07.802Z,101185.17
2018-02-27T14:05:36.123Z,101188.66
2018-02-27T14:08:03.751Z,101186.44
2018-02-27T14:10:31.467Z,101183.88
2018-02-27T14:12:58.920Z,101175.69
2018-02-27T14:15:26.562Z,101177.43
2018-02-27T14:17:54.023Z,101174.39
2018-02-27T14:20:22.134Z,101173.52
2018-02-27T14:22:49.958Z,101172.64
2018-02-27T14:25:18.115Z,101170.93
2018-02-27T14:27:45.748Z,101166.16
2018-02-27T14:30:13.635Z,101169.23
2018-02-27T14:32:41.646Z,101170.52
2018-02-27T14:35:08.899Z,101164.88
2018-02-27T14:37:43.400Z,101165.75
2018-02-27T14:42:48.035Z,101154.07
2018-02-27T14:45:14.694Z,101156.22
2018-02-27T14:47:41.416Z,101154.45
2018-02-27T14:50:08.061Z,101156.14
2018-02-27T14:52:34.674Z,101157.02
2018-02-27T14:55:01.320Z,101159.25
2018-02-27T14:57:27.970Z,101150.62
2018-02-27T14:59:55.411Z,101147.58
2018-02-27T15:02:22.073Z,101144.14
2018-02-27T15:04:48.703Z,101136.77
2018-02-27T15:07:15.343Z,101134.61
2018-02-27T15:09:42.131Z,101132.88
2018-02-27T15:12:08.943Z,101135.48
2018-02-27T15:14:35.681Z,101143.20
2018-02-27T15:17:02.729Z,101127.27
2018-02-27T15:19:29.852Z,101128.55
2018-02-27T15:21:56.612Z,101120.74
2018-02-27T15:24:24.298Z,101119.92
2018-02-27T15:26:51.627Z,101116.87
2018-02-27T15:29:18.604Z,101120.28
2018-02-27T15:31:45.344Z,101115.92
2018-02-27T15:34:12.098Z,101110.59
2018-02-27T15:36:38.721Z,101114.38
2018-02-27T15:39:05.731Z,101110.63
2018-02-27T15:41:32.639Z,101103.79
2018-02-27T15:43:59.274Z,101109.42
2018-02-27T15:46:26.122Z,101104.73
2018-02-27T15:48:52.791Z,101103.78
2018-02-27T15:51:19.440Z,101099.14
2018-02-27T15:53:46.126Z,101106.47
2018-02-27T15:56:13.179Z,101098.66
2018-02-27T15:58:39.964Z,101103.07
2018-02-27T16:01:06.743Z,101107.39
2018-02-27T16:03:33.359Z,101103.94
2018-02-27T16:06:00.222Z,101109.55
2018-02-27T16:08:26.913Z,101112.97
2018-02-27T16:10:53.629Z,101106.52
2018-02-27T16:13:20.406Z,101109.48
2018-02-27T16:15:47.399Z,101111.65
2018-02-27T16:18:14.002Z,101112.06
2018-02-27T16:20:40.639Z,101115.03
2018-02-27T16:23:07.322Z,101114.70
2018-02-27T16:25:33.972Z,101115.04
2018-02-27T16:28:01.462Z,101115.11
2018-02-27T16:30:28.143Z,101114.63
2018-02-27T16:32:55.011Z,101116.36
2018-02-27T16:35:21.710Z,101109.00
2018-02-27T16:37:48.411Z,101104.63
2018-02-27T16:40:15.734Z,101105.91
2018-02-27T16:42:42.376Z,101109.77
2018-02-27T16:45:09.080Z,101108.92
2018-02-27T16:47:36.017Z,101105.53
2018-02-27T16:50:02.673Z,101109.73
2018-02-27T16:52:29.410Z,101107.97
2018-02-27T16:54:56.010Z,101105.81
2018-02-27T16:57:22.751Z,101107.27
2018-02-27T16:59:49.414Z,101115.78
2018-02-27T17:02:16.300Z,101115.42
2018-02-27T17:04:42.930Z,101116.64
2018-02-27T17:07:09.655Z,101125.20
2018-02-27T17:09:36.537Z,101119.22
2018-02-27T17:12:03.270Z,101120.47
2018-02-27T17:14:30.362Z,101131.20
2018-02-27T17:16:57.025Z,101129.05
2018-02-27T17:19:24.398Z,101127.96
2018-02-27T17:21:51.073Z,101129.44
2018-02-27T17:24:17.845Z,101127.68
2018-02-27T17:26:44.601Z,101134.95
2018-02-27T17:29:11.358Z,101122.84
2018-02-27T17:31:38.477Z,101136.19
2018-02-27T17:34:05.979Z,101134.77
2018-02-27T17:36:32.626Z,101135.27
2018-02-27T17:38:59.206Z,101131.41
2018-02-27T17:41:26.013Z,101126.75
2018-02-27T17:43:52.608Z,101128.84
2018-02-27T17:46:19.263Z,101124.14
2018-02-27T17:48:45.874Z,101120.94
2018-02-27T17:51:12.433Z,101130.52
2018-02-27T17:53:39.013Z,101127.84
2018-02-27T17:56:05.613Z,101128.17
2018-02-27T17:58:32.209Z,101123.77
2018-02-27T18:00:58.898Z,101127.33
2018-02-27T18:03:25.584Z,101123.75
2018-02-27T18:05:52.375Z,101123.92
2018-02-27T18:08:19.709Z,101120.00
2018-02-27T18:10:46.306Z,101124.15
2018-02-27T18:13:12.915Z,101125.08
2018-02-27T18:15:39.528Z,101120.88
2018-02-27T18:18:06.181Z,101118.95
2018-02-27T18:20:32.779Z,101118.61
2018-02-27T18:22:59.447Z,101122.70
2018-02-27T18:25:26.084Z,101120.97
2018-02-27T18:27:56.254Z,101119.08
2018-02-27T18:30:22.843Z,101125.30
2018-02-27T18:32:49.663Z,101117.66
2018-02-27T18:35:16.404Z,101126.70
2018-02-27T18:37:43.769Z,101117.70
2018-02-27T18:40:10.403Z,101121.28
2018-02-27T18:42:37.039Z,101125.68
2018-02-27T18:45:03.673Z,101112.95
2018-02-27T18:47:30.799Z,101123.92
2018-02-27T18:49:58.590Z,101122.23
2018-02-27T18:52:25.233Z,101121.69
2018-02-27T18:54:51.840Z,101127.43
2018-02-27T18:57:18.479Z,101126.02
2018-02-27T18:59:45.063Z,101124.56
2018-02-27T19:02:11.740Z,101131.56
2018-02-27T19:04:38.877Z,101126.27
2018-02-27T19:07:05.725Z,101124.84
2018-02-27T19:09:32.310Z,101119.55
2018-02-27T19:11:59.709Z,101123.80
2018-02-27T19:14:28.114Z,101120.36
2018-02-27T19:16:54.732Z,101128.42
2018-02-27T19:19:21.361Z,101124.53
2018-02-27T19:21:48.154Z,101119.04
2018-02-27T19:24:14.856Z,101118.12
2018-02-27T19:26:41.599Z,101129.33
2018-02-27T19:29:08.430Z,101125.47
2018-02-27T19:31:35.271Z,101123.99
2018-02-27T19:34:02.070Z,101121.64
2018-02-27T19:36:46.934Z,101111.67
2018-02-27T19:39:14.058Z,101120.77
2018-02-27T19:41:41.286Z,101123.09
2018-02-27T19:44:18.143Z,101124.51
2018-02-27T19:50:05.609Z,101131.28
2018-02-27T19:52:33.872Z,101134.67
2018-02-27T19:55:01.379Z,101137.36
2018-02-27T19:57:30.259Z,101133.74
2018-02-27T19:59:57.350Z,101130.70
2018-02-27T20:02:25.222Z,101136.27
2018-02-27T20:04:52.979Z,101131.92
2018-02-27T20:07:21.176Z,101131.13
2018-02-27T20:09:49.660Z,101126.81
2018-02-27T20:12:17.861Z,101125.08
2018-02-27T20:14:46.185Z,101128.81
2018-02-27T20:17:15.183Z,101127.94
2018-02-27T20:19:43.107Z,101129.67
2018-02-27T20:22:10.834Z,101139.05
2018-02-27T20:24:38.549Z,101136.97
2018-02-27T20:27:05.849Z,101131.11
2018-02-27T20:29:33.755Z,101134.90
2018-02-27T20:32:07.380Z,101134.06
2018-02-27T20:34:55.884Z,101131.90
2018-02-27T20:40:34.049Z,101140.02
2018-02-27T20:43:01.642Z,101143.70
2018-02-27T20:45:29.525Z,101145.51
2018-02-27T20:47:57.657Z,101146.33
2018-02-27T20:56:48.079Z,101149.70
2018-02-27T20:59:16.334Z,101153.38
2018-02-27T21:01:44.602Z,101154.36
2018-02-27T21:07:34.775Z,101162.42
2018-02-27T21:10:02.338Z,101163.42
2018-02-27T21:12:33.758Z,101161.41
2018-02-27T21:18:11.054Z,101160.84
2018-02-27T21:20:38.654Z,101160.58
2018-02-27T21:23:06.304Z,101164.95
2018-02-27T21:25:33.958Z,101154.45
2018-02-27T21:28:01.256Z,101152.23
2018-02-27T21:33:38.245Z,101147.81
2018-02-27T21:36:05.254Z,101149.05
2018-02-27T21:38:32.227Z,101146.31
2018-02-27T21:40:59.175Z,101153.86
2018-02-27T21:43:26.114Z,101146.06
2018-02-27T21:46:22.979Z,101153.75
2018-02-27T21:48:50.026Z,101151.17
2018-02-27T21:51:17.324Z,101141.49
2018-02-27T21:53:45.415Z,101146.89
2018-02-27T21:56:12.648Z,101149.97
2018-02-27T21:58:39.642Z,101150.94
2018-02-27T22:01:06.807Z,101142.84
2018-02-27T22:03:34.776Z,101138.97
2018-02-27T22:06:09.721Z,101146.88
2018-02-27T22:08:36.435Z,101146.96
2018-02-27T22:11:03.040Z,101145.67
2018-02-27T22:13:30.016Z,101142.73
2018-02-27T22:15:56.647Z,101139.01
2018-02-27T22:18:24.956Z,101144.92
2018-02-27T22:20:52.177Z,101140.89
2018-02-27T22:23:18.881Z,101147.42
2018-02-27T22:25:46.201Z,101155.95
2018-02-27T22:28:13.595Z,101149.22
2018-02-27T22:30:42.122Z,101146.40
2018-02-27T22:33:09.486Z,101145.84
2018-02-27T22:35:36.972Z,101144.31
2018-02-27T22:38:05.029Z,101140.39
2018-02-27T22:40:32.428Z,101148.21
2018-02-27T22:42:59.108Z,101140.58
2018-02-27T22:45:25.797Z,101142.42
2018-02-27T22:47:52.501Z,101140.64
2018-02-27T22:50:27.440Z,101142.31
2018-02-27T22:52:55.420Z,101154.83
2018-02-27T22:55:29.201Z,101148.59
2018-02-27T22:57:56.875Z,101156.39
2018-02-27T23:00:36.357Z,101148.98
2018-02-27T23:03:04.102Z,101155.20
2018-02-27T23:05:31.725Z,101160.82
2018-02-27T23:07:59.314Z,101156.84
2018-02-27T23:10:28.579Z,101150.16
2018-02-27T23:12:56.266Z,101151.03
2018-02-27T23:15:24.950Z,101156.66
2018-02-27T23:17:52.603Z,101157.83
2018-02-27T23:20:20.263Z,101158.58
2018-02-27T23:22:47.837Z,101162.41
2018-02-27T23:25:30.977Z,101151.92
2018-02-27T23:28:05.312Z,101151.73
2018-02-27T23:30:33.914Z,101148.39
2018-02-27T23:33:05.381Z,101157.33
2018-02-27T23:35:33.647Z,101154.74
2018-02-27T23:38:01.988Z,101149.55
2018-02-27T23:40:29.557Z,101155.06
2018-02-27T23:42:57.230Z,101156.16
2018-02-27T23:45:26.552Z,101152.43
2018-02-27T23:47:55.436Z,101158.36
2018-02-27T23:50:22.943Z,101153.73
2018-02-27T23:52:50.395Z,101154.03
2018-02-27T23:55:17.889Z,101161.39
2018-02-27T23:57:46.101Z,101162.03
